sensor_id;sensor_type;location;lat;lon;timestamp;P1;durP1;ratioP1;P2;durP2;ratioP2
40449;SDS011;41787;53.570;10.032;2023-06-22T00:00:49;3.58;;;2.47;;
40449;SDS011;41787;53.570;10.032;2023-06-22T00:03:15;6.78;;;3.53;;
40449;SDS011;41787;53.570;10.032;2023-06-22T00:05:41;5.43;;;3.28;;
40449;SDS011;41787;53.570;10.032;2023-06-22T00:08:13;7.78;;;3.10;;
40449;SDS011;41787;53.570;10.032;2023-06-22T00:10:39;9.50;;;3.22;;
40449;SDS011;41787;53.570;10.032;2023-06-22T00:13:06;6.22;;;3.15;;
40449;SDS011;41787;53.570;10.032;2023-06-22T00:15:32;8.30;;;3.70;;
40449;SDS011;41787;53.570;10.032;2023-06-22T00:17:58;5.30;;;3.10;;
40449;SDS011;41787;53.570;10.032;2023-06-22T00:20:24;6.30;;;3.20;;
40449;SDS011;41787;53.570;10.032;2023-06-22T00:22:52;5.70;;;3.20;;
40449;SDS011;41787;53.570;10.032;2023-06-22T00:25:18;6.25;;;3.58;;
40449;SDS011;41787;53.570;10.032;2023-06-22T00:27:44;5.72;;;3.63;;
40449;SDS011;41787;53.570;10.032;2023-06-22T00:30:11;7.95;;;4.55;;
40449;SDS011;41787;53.570;10.032;2023-06-22T00:32:37;5.70;;;3.60;;
40449;SDS011;41787;53.570;10.032;2023-06-22T00:35:05;6.00;;;3.40;;
40449;SDS011;41787;53.570;10.032;2023-06-22T00:37:31;6.00;;;3.50;;
40449;SDS011;41787;53.570;10.032;2023-06-22T00:39:57;6.43;;;3.30;;
40449;SDS011;41787;53.570;10.032;2023-06-22T00:42:23;5.40;;;3.42;;
40449;SDS011;41787;53.570;10.032;2023-06-22T00:44:49;5.00;;;3.38;;
40449;SDS011;41787;53.570;10.032;2023-06-22T00:47:16;5.93;;;3.47;;
40449;SDS011;41787;53.570;10.032;2023-06-22T00:49:43;4.82;;;3.20;;
40449;SDS011;41787;53.570;10.032;2023-06-22T00:52:10;9.98;;;3.47;;
40449;SDS011;41787;53.570;10.032;2023-06-22T00:54:41;6.30;;;3.67;;
40449;SDS011;41787;53.570;10.032;2023-06-22T00:57:11;6.10;;;3.70;;
40449;SDS011;41787;53.570;10.032;2023-06-22T00:59:37;6.70;;;3.47;;
40449;SDS011;41787;53.570;10.032;2023-06-22T01:02:04;7.75;;;3.80;;
40449;SDS011;41787;53.570;10.032;2023-06-22T01:04:34;5.75;;;3.17;;
40449;SDS011;41787;53.570;10.032;2023-06-22T01:07:08;6.18;;;3.88;;
40449;SDS011;41787;53.570;10.032;2023-06-22T01:09:40;8.27;;;4.18;;
40449;SDS011;41787;53.570;10.032;2023-06-22T01:14:38;5.25;;;3.10;;
40449;SDS011;41787;53.570;10.032;2023-06-22T01:17:05;6.05;;;3.78;;
40449;SDS011;41787;53.570;10.032;2023-06-22T01:19:46;7.82;;;3.95;;
40449;SDS011;41787;53.570;10.032;2023-06-22T01:22:12;4.85;;;3.35;;
40449;SDS011;41787;53.570;10.032;2023-06-22T01:30:10;6.90;;;3.83;;
40449;SDS011;41787;53.570;10.032;2023-06-22T01:32:37;8.77;;;3.90;;
40449;SDS011;41787;53.570;10.032;2023-06-22T01:35:04;4.90;;;3.45;;
40449;SDS011;41787;53.570;10.032;2023-06-22T01:37:32;9.25;;;3.55;;
40449;SDS011;41787;53.570;10.032;2023-06-22T01:39:59;4.72;;;3.13;;
40449;SDS011;41787;53.570;10.032;2023-06-22T01:42:26;6.30;;;3.42;;
40449;SDS011;41787;53.570;10.032;2023-06-22T01:44:52;6.10;;;3.58;;
40449;SDS011;41787;53.570;10.032;2023-06-22T01:47:19;5.90;;;3.42;;
40449;SDS011;41787;53.570;10.032;2023-06-22T01:49:45;5.85;;;3.63;;
40449;SDS011;41787;53.570;10.032;2023-06-22T01:52:11;5.53;;;3.97;;
40449;SDS011;41787;53.570;10.032;2023-06-22T01:54:38;10.88;;;3.58;;
40449;SDS011;41787;53.570;10.032;2023-06-22T01:57:04;7.85;;;3.95;;
40449;SDS011;41787;53.570;10.032;2023-06-22T01:59:37;6.35;;;3.85;;
40449;SDS011;41787;53.570;10.032;2023-06-22T02:02:09;5.75;;;3.83;;
40449;SDS011;41787;53.570;10.032;2023-06-22T02:07:01;6.07;;;3.67;;
40449;SDS011;41787;53.570;10.032;2023-06-22T02:09:31;7.68;;;3.42;;
40449;SDS011;41787;53.570;10.032;2023-06-22T02:11:57;7.18;;;4.15;;
40449;SDS011;41787;53.570;10.032;2023-06-22T02:14:24;4.82;;;3.60;;
40449;SDS011;41787;53.570;10.032;2023-06-22T02:16:51;5.80;;;3.72;;
40449;SDS011;41787;53.570;10.032;2023-06-22T02:19:17;6.22;;;4.10;;
40449;SDS011;41787;53.570;10.032;2023-06-22T02:21:47;9.20;;;4.65;;
40449;SDS011;41787;53.570;10.032;2023-06-22T02:24:13;7.38;;;4.13;;
40449;SDS011;41787;53.570;10.032;2023-06-22T02:26:39;6.28;;;4.45;;
40449;SDS011;41787;53.570;10.032;2023-06-22T02:29:07;6.07;;;3.88;;
40449;SDS011;41787;53.570;10.032;2023-06-22T02:31:33;9.43;;;5.32;;
40449;SDS011;41787;53.570;10.032;2023-06-22T02:33:59;6.78;;;4.68;;
40449;SDS011;41787;53.570;10.032;2023-06-22T02:36:25;8.73;;;4.63;;
40449;SDS011;41787;53.570;10.032;2023-06-22T02:41:24;7.95;;;4.50;;
40449;SDS011;41787;53.570;10.032;2023-06-22T02:43:50;5.93;;;4.30;;
40449;SDS011;41787;53.570;10.032;2023-06-22T02:46:15;7.07;;;4.28;;
40449;SDS011;41787;53.570;10.032;2023-06-22T02:48:42;7.82;;;5.07;;
40449;SDS011;41787;53.570;10.032;2023-06-22T02:51:08;8.00;;;4.43;;
40449;SDS011;41787;53.570;10.032;2023-06-22T02:53:34;6.18;;;4.35;;
40449;SDS011;41787;53.570;10.032;2023-06-22T02:56:02;9.27;;;5.28;;
40449;SDS011;41787;53.570;10.032;2023-06-22T02:58:30;7.15;;;4.68;;
40449;SDS011;41787;53.570;10.032;2023-06-22T03:00:58;9.02;;;4.70;;
40449;SDS011;41787;53.570;10.032;2023-06-22T03:03:29;8.15;;;4.88;;
40449;SDS011;41787;53.570;10.032;2023-06-22T03:05:55;5.50;;;4.15;;
40449;SDS011;41787;53.570;10.032;2023-06-22T03:08:21;6.93;;;4.55;;
40449;SDS011;41787;53.570;10.032;2023-06-22T03:10:47;8.43;;;4.22;;
40449;SDS011;41787;53.570;10.032;2023-06-22T03:13:13;6.22;;;4.25;;
40449;SDS011;41787;53.570;10.032;2023-06-22T03:15:39;7.50;;;4.70;;
40449;SDS011;41787;53.570;10.032;2023-06-22T03:18:05;7.93;;;4.25;;
40449;SDS011;41787;53.570;10.032;2023-06-22T03:20:31;7.47;;;4.63;;
40449;SDS011;41787;53.570;10.032;2023-06-22T03:22:58;6.50;;;4.55;;
40449;SDS011;41787;53.570;10.032;2023-06-22T03:25:24;7.97;;;4.97;;
40449;SDS011;41787;53.570;10.032;2023-06-22T03:27:50;8.18;;;5.10;;
40449;SDS011;41787;53.570;10.032;2023-06-22T03:30:16;8.30;;;5.78;;
40449;SDS011;41787;53.570;10.032;2023-06-22T03:32:42;6.72;;;5.28;;
40449;SDS011;41787;53.570;10.032;2023-06-22T03:35:10;8.02;;;5.60;;
40449;SDS011;41787;53.570;10.032;2023-06-22T03:37:38;8.02;;;4.38;;
40449;SDS011;41787;53.570;10.032;2023-06-22T03:40:05;7.38;;;4.50;;
40449;SDS011;41787;53.570;10.032;2023-06-22T03:42:31;7.25;;;4.82;;
40449;SDS011;41787;53.570;10.032;2023-06-22T03:44:57;5.85;;;4.55;;
40449;SDS011;41787;53.570;10.032;2023-06-22T03:47:23;7.55;;;4.75;;
40449;SDS011;41787;53.570;10.032;2023-06-22T03:49:49;7.22;;;4.43;;
40449;SDS011;41787;53.570;10.032;2023-06-22T03:52:14;7.22;;;4.90;;
40449;SDS011;41787;53.570;10.032;2023-06-22T03:54:40;7.57;;;4.97;;
40449;SDS011;41787;53.570;10.032;2023-06-22T03:57:06;8.05;;;4.85;;
40449;SDS011;41787;53.570;10.032;2023-06-22T03:59:32;10.65;;;5.40;;
40449;SDS011;41787;53.570;10.032;2023-06-22T04:01:58;7.97;;;4.25;;
40449;SDS011;41787;53.570;10.032;2023-06-22T04:04:25;6.97;;;4.57;;
40449;SDS011;41787;53.570;10.032;2023-06-22T04:06:51;8.88;;;4.78;;
40449;SDS011;41787;53.570;10.032;2023-06-22T04:09:16;7.28;;;4.53;;
40449;SDS011;41787;53.570;10.032;2023-06-22T04:11:42;7.30;;;4.60;;
40449;SDS011;41787;53.570;10.032;2023-06-22T04:14:08;5.97;;;4.07;;
40449;SDS011;41787;53.570;10.032;2023-06-22T04:16:34;7.28;;;4.15;;
40449;SDS011;41787;53.570;10.032;2023-06-22T04:19:00;7.07;;;4.18;;
40449;SDS011;41787;53.570;10.032;2023-06-22T04:21:26;6.28;;;4.22;;
40449;SDS011;41787;53.570;10.032;2023-06-22T04:23:52;8.07;;;4.35;;
40449;SDS011;41787;53.570;10.032;2023-06-22T04:26:19;6.30;;;4.82;;
40449;SDS011;41787;53.570;10.032;2023-06-22T04:28:46;7.13;;;5.47;;
40449;SDS011;41787;53.570;10.032;2023-06-22T04:31:16;7.70;;;4.47;;
40449;SDS011;41787;53.570;10.032;2023-06-22T04:33:43;8.43;;;4.30;;
40449;SDS011;41787;53.570;10.032;2023-06-22T04:36:08;7.22;;;4.75;;
40449;SDS011;41787;53.570;10.032;2023-06-22T04:38:38;7.35;;;5.15;;
40449;SDS011;41787;53.570;10.032;2023-06-22T04:41:04;8.82;;;4.75;;
40449;SDS011;41787;53.570;10.032;2023-06-22T04:43:30;7.68;;;4.68;;
40449;SDS011;41787;53.570;10.032;2023-06-22T04:45:59;8.98;;;4.57;;
40449;SDS011;41787;53.570;10.032;2023-06-22T04:48:28;8.23;;;4.63;;
40449;SDS011;41787;53.570;10.032;2023-06-22T04:50:58;6.60;;;4.70;;
40449;SDS011;41787;53.570;10.032;2023-06-22T04:53:30;8.43;;;4.22;;
40449;SDS011;41787;53.570;10.032;2023-06-22T04:56:02;7.68;;;4.53;;
40449;SDS011;41787;53.570;10.032;2023-06-22T04:58:29;6.50;;;4.53;;
40449;SDS011;41787;53.570;10.032;2023-06-22T05:00:57;7.93;;;4.65;;
40449;SDS011;41787;53.570;10.032;2023-06-22T05:03:24;7.07;;;3.72;;
40449;SDS011;41787;53.570;10.032;2023-06-22T05:05:50;6.70;;;3.95;;
40449;SDS011;41787;53.570;10.032;2023-06-22T05:08:18;8.63;;;4.57;;
40449;SDS011;41787;53.570;10.032;2023-06-22T05:10:44;6.20;;;4.10;;
40449;SDS011;41787;53.570;10.032;2023-06-22T05:13:10;8.40;;;4.35;;
40449;SDS011;41787;53.570;10.032;2023-06-22T05:15:36;5.40;;;3.70;;
40449;SDS011;41787;53.570;10.032;2023-06-22T05:18:04;7.25;;;3.75;;
40449;SDS011;41787;53.570;10.032;2023-06-22T05:20:30;4.78;;;3.28;;
40449;SDS011;41787;53.570;10.032;2023-06-22T05:22:57;7.60;;;3.88;;
40449;SDS011;41787;53.570;10.032;2023-06-22T05:25:22;5.53;;;3.20;;
40449;SDS011;41787;53.570;10.032;2023-06-22T05:27:48;5.78;;;3.03;;
40449;SDS011;41787;53.570;10.032;2023-06-22T05:30:16;5.05;;;3.40;;
40449;SDS011;41787;53.570;10.032;2023-06-22T05:32:43;5.40;;;2.70;;
40449;SDS011;41787;53.570;10.032;2023-06-22T05:35:09;6.85;;;3.30;;
40449;SDS011;41787;53.570;10.032;2023-06-22T05:37:35;9.57;;;3.00;;
40449;SDS011;41787;53.570;10.032;2023-06-22T05:40:01;5.60;;;3.45;;
40449;SDS011;41787;53.570;10.032;2023-06-22T05:42:28;6.55;;;2.92;;
40449;SDS011;41787;53.570;10.032;2023-06-22T05:44:54;3.80;;;2.50;;
40449;SDS011;41787;53.570;10.032;2023-06-22T05:47:20;8.90;;;2.85;;
40449;SDS011;41787;53.570;10.032;2023-06-22T05:52:51;4.63;;;2.60;;
40449;SDS011;41787;53.570;10.032;2023-06-22T05:55:17;7.38;;;2.33;;
40449;SDS011;41787;53.570;10.032;2023-06-22T05:57:44;4.18;;;1.88;;
40449;SDS011;41787;53.570;10.032;2023-06-22T06:00:10;7.95;;;2.47;;
40449;SDS011;41787;53.570;10.032;2023-06-22T06:02:36;9.43;;;2.45;;
40449;SDS011;41787;53.570;10.032;2023-06-22T06:05:08;4.18;;;2.20;;
40449;SDS011;41787;53.570;10.032;2023-06-22T06:07:34;4.60;;;2.38;;
40449;SDS011;41787;53.570;10.032;2023-06-22T06:10:00;9.77;;;2.35;;
40449;SDS011;41787;53.570;10.032;2023-06-22T06:13:04;3.67;;;2.20;;
40449;SDS011;41787;53.570;10.032;2023-06-22T06:15:31;5.70;;;2.28;;
40449;SDS011;41787;53.570;10.032;2023-06-22T06:17:57;6.60;;;2.03;;
